Time;durP1;ratioP1;P1;durP2;ratioP2;P2;SDS_P1;SDS_P2;PMS_P1;PMS_P2;Temp;Humidity;BMP_temperature;BMP_pressure;BME280_temperature;BME280_humidity;BME280_pressure;Samples;Min_cycle;Max_cycle;Signal;HPM_P1;HPM_P2
2022/05/04 00:01:54;;;;;;;3.4;2.7;;;;;;;12.11;91.00977;937.8067;;;;
2022/05/04 00:04:20;;;;;;;4.2;2.7;;;;;;;12.06;91.54785;937.9279;;;;
2022/05/04 00:06:50;;;;;;;3.4;2.5;;;;;;;12.09;91.45117;937.8904;;;;
2022/05/04 00:09:18;;;;;;;2.8;2.6;;;;;;;12.22;91.32813;937.8512;;;;
2022/05/04 00:16:33;;;;;;;2.9;2.6;;;;;;;12.17;90.92969;937.7614;;;;
2022/05/04 00:18:58;;;;;;;4;2.5;;;;;;;12.16;90.13672;937.7606;;;;
2022/05/04 00:21:26;;;;;;;3.2;2.2;;;;;;;11.96;91.02344;937.7263;;;;
2022/05/04 00:23:51;;;;;;;2.5;2.2;;;;;;;11.99;91.09961;937.6816;;;;
2022/05/04 00:26:16;;;;;;;2.8;2.6;;;;;;;12.03;90.94727;937.6876;;;;
2022/05/04 00:28:41;;;;;;;2.3;2.1;;;;;;;11.9;90.87305;937.7172;;;;
2022/05/04 00:31:10;;;;;;;2.4;2.2;;;;;;;11.9;90.31152;937.6646;;;;
2022/05/04 00:33:35;;;;;;;2.6;2.2;;;;;;;12.01;90.81738;937.6744;;;;
2022/05/04 00:36:01;;;;;;;2.9;2.2;;;;;;;12.05;90.99609;937.6127;;;;
2022/05/04 00:38:26;;;;;;;3.3;2.1;;;;;;;12.07;89.94629;937.6127;;;;
2022/05/04 00:40:54;;;;;;;2.6;2.4;;;;;;;12.01;90.50781;937.562;;;;
2022/05/04 00:43:20;;;;;;;2.7;2.5;;;;;;;11.74;92.52148;937.5038;;;;
2022/05/04 00:45:45;;;;;;;3.1;2.7;;;;;;;11.52;94.00879;937.4827;;;;
2022/05/04 00:52:00;;;;;;;5;3;;;;;;;11.73;93.64355;937.4504;;;;
2022/05/04 00:54:25;;;;;;;3.5;2.9;;;;;;;11.72;93.28711;937.4272;;;;
2022/05/04 00:56:54;;;;;;;4.5;2.8;;;;;;;11.66;93.43359;937.4302;;;;
2022/05/04 00:59:19;;;;;;;3.5;2.8;;;;;;;11.58;94.56055;937.4727;;;;
2022/05/04 01:01:50;;;;;;;4.6;3;;;;;;;11.59;94.02441;937.4336;;;;
2022/05/04 01:04:22;;;;;;;3.3;3;;;;;;;11.43;94.00293;937.4377;;;;
2022/05/04 01:06:52;;;;;;;3.6;3;;;;;;;11.32;94.6748;937.4464;;;;
2022/05/04 01:09:20;;;;;;;3.2;2.8;;;;;;;11.25;95.35645;937.4651;;;;
2022/05/04 01:11:46;;;;;;;4.4;2.7;;;;;;;11.19;95.43652;937.4861;;;;
2022/05/04 01:14:11;;;;;;;3.3;2.7;;;;;;;10.97;96.28906;937.4645;;;;
2022/05/04 01:16:44;;;;;;;3.4;2.9;;;;;;;10.87;96.92969;937.4543;;;;
2022/05/04 01:19:14;;;;;;;3.6;3;;;;;;;10.74;97.62109;937.5223;;;;
2022/05/04 01:21:40;;;;;;;4.1;2.8;;;;;;;10.75;97.88867;937.4883;;;;
2022/05/04 01:24:10;;;;;;;3.1;2.8;;;;;;;10.8;97.54395;937.4194;;;;
2022/05/04 01:26:36;;;;;;;3;2.7;;;;;;;10.74;97.29004;937.4946;;;;
2022/05/04 01:29:04;;;;;;;3.2;2.9;;;;;;;10.78;97.25293;937.4964;;;;
2022/05/04 01:31:29;;;;;;;3.7;2.7;;;;;;;10.72;96.87305;937.4402;;;;
2022/05/04 01:33:55;;;;;;;3.6;2.8;;;;;;;10.51;97.83105;937.4327;;;;
2022/05/04 01:36:20;;;;;;;5;3.1;;;;;;;10.34;98.71875;937.4175;;;;
2022/05/04 01:38:51;;;;;;;3.6;2.8;;;;;;;10.2;99.51855;937.5;;;;
2022/05/04 01:43:46;;;;;;;3.2;2.9;;;;;;;10.12;99.83301;937.4762;;;;
2022/05/04 01:46:11;;;;;;;4.9;3.1;;;;;;;10;100;937.4453;;;;
2022/05/04 01:48:41;;;;;;;3.6;2.9;;;;;;;10;100;937.4445;;;;
2022/05/04 01:51:16;;;;;;;3.2;2.9;;;;;;;9.96;100;937.3764;;;;
2022/05/04 01:53:46;;;;;;;2.9;2.6;;;;;;;9.98;100;937.4419;;;;
2022/05/04 01:56:11;;;;;;;3.7;2.8;;;;;;;10.09;100;937.4202;;;;
2022/05/04 01:58:39;;;;;;;2.9;2.5;;;;;;;10.01;99.61426;937.4735;;;;
2022/05/04 02:01:04;;;;;;;4;2.7;;;;;;;10.05;99.51758;937.4412;;;;
2022/05/04 02:03:31;;;;;;;4.6;2.5;;;;;;;10.2;98.81152;937.4364;;;;
2022/05/04 02:06:00;;;;;;;3.5;2.3;;;;;;;10.31;97.96875;937.3281;;;;
2022/05/04 02:08:25;;;;;;;2.8;2.1;;;;;;;10.36;96.64355;937.4081;;;;
2022/05/04 02:10:51;;;;;;;3.3;2.3;;;;;;;10.38;96.75195;937.3963;;;;
2022/05/04 02:20:06;;;;;;;3;1.9;;;;;;;10.09;95.16895;937.3978;;;;
2022/05/04 02:22:37;;;;;;;2.4;1.6;;;;;;;10.04;95.74219;937.3505;;;;
2022/05/04 02:25:04;;;;;;;2;1.7;;;;;;;10.02;95.83008;937.3503;;;;
2022/05/04 02:27:30;;;;;;;3;1.4;;;;;;;10.04;95.41016;937.3282;;;;
2022/05/04 02:29:58;;;;;;;1.8;1.4;;;;;;;10.18;95.14258;937.3088;;;;
2022/05/04 02:32:25;;;;;;;1.9;1.7;;;;;;;10.32;94.84375;937.2764;;;;
2022/05/04 02:39:55;;;;;;;2.6;1.6;;;;;;;10.49;93.52539;937.2344;;;;
2022/05/04 02:42:27;;;;;;;1.9;1.7;;;;;;;10.64;93.11035;937.1666;;;;
2022/05/04 02:44:57;;;;;;;2.2;1.7;;;;;;;10.74;92.86914;937.2182;;;;
2022/05/04 02:47:22;;;;;;;1.8;1.7;;;;;;;10.71;92.33789;937.2076;;;;
2022/05/04 02:49:50;;;;;;;1.7;1.6;;;;;;;10.67;92.66016;937.1827;;;;
2022/05/04 02:52:15;;;;;;;2.1;1.9;;;;;;;10.53;92.80176;937.202;;;;
2022/05/04 02:54:45;;;;;;;2.1;1.9;;;;;;;10.48;93.29297;937.1523;;;;
2022/05/04 02:57:10;;;;;;;3;2;;;;;;;10.3;93.83789;937.2095;;;;
2022/05/04 02:59:39;;;;;;;2.2;2;;;;;;;10.26;94.78613;937.2171;;;;
2022/05/04 03:04:40;;;;;;;1.8;1.7;;;;;;;10.42;94.23828;937.2355;;;;
2022/05/04 03:07:06;;;;;;;2;1.8;;;;;;;10.31;94.19141;937.2629;;;;
2022/05/04 03:09:35;;;;;;;2;1.9;;;;;;;10.34;94.69043;937.2639;;;;
2022/05/04 03:12:01;;;;;;;1.8;1.6;;;;;;;10.42;94.25098;937.2903;;;;
2022/05/04 03:14:29;;;;;;;2.1;1.7;;;;;;;10.49;94.15039;937.3148;;;;
2022/05/04 03:16:54;;;;;;;2.5;1.9;;;;;;;10.52;93.72266;937.2952;;;;
2022/05/04 03:19:22;;;;;;;1.9;1.8;;;;;;;10.56;93.28711;937.2715;;;;
2022/05/04 03:21:47;;;;;;;1.8;1.7;;;;;;;10.46;93.01465;937.266;;;;
2022/05/04 03:24:13;;;;;;;2.1;1.9;;;;;;;10.53;93.69238;937.2299;;;;
2022/05/04 03:26:39;;;;;;;3.3;1.9;;;;;;;10.54;93.52344;937.2745;;;;
2022/05/04 03:29:07;;;;;;;2.3;2;;;;;;;10.63;93.2002;937.27;;;;
2022/05/04 03:31:32;;;;;;;3.2;2;;;;;;;10.71;92.81836;937.257;;;;
2022/05/04 03:34:03;;;;;;;2.3;1.9;;;;;;;10.73;93.08691;937.3033;;;;
2022/05/04 03:36:27;;;;;;;2.2;2;;;;;;;10.76;92.55371;937.2725;;;;
2022/05/04 03:38:58;;;;;;;2.3;2.1;;;;;;;10.83;92.7041;937.2805;;;;
2022/05/04 03:41:22;;;;;;;3.1;2.2;;;;;;;10.84;92.29688;937.2701;;;;
2022/05/04 03:46:53;;;;;;;2.5;2.3;;;;;;;10.79;92.25098;937.3189;;;;
2022/05/04 03:49:18;;;;;;;1.9;1.8;;;;;;;10.68;92.30762;937.3516;;;;
2022/05/04 03:51:47;;;;;;;2.1;1.9;;;;;;;10.58;93.33691;937.2876;;;;
2022/05/04 03:54:12;;;;;;;2.3;2.1;;;;;;;10.57;93.51758;937.2868;;;;
2022/05/04 03:56:38;;;;;;;2.6;2.4;;;;;;;10.58;93.17871;937.3131;;;;
2022/05/04 03:59:03;;;;;;;2.6;1.7;;;;;;;10.5;93.29883;937.3284;;;;
2022/05/04 04:02:35;;;;;;;1.9;1.8;;;;;;;10.36;94.2373;937.3412;;;;
2022/05/04 04:05:00;;;;;;;2.8;1.8;;;;;;;10.26;94.5127;937.3524;;;;
2022/05/04 04:07:25;;;;;;;1.7;1.6;;;;;;;10.35;94.03027;937.3491;;;;
2022/05/04 04:09:52;;;;;;;1.6;1.5;;;;;;;10.42;93.83984;937.3986;;;;
2022/05/04 04:12:17;;;;;;;1.9;1.7;;;;;;;10.52;93.3457;937.3883;;;;
2022/05/04 04:14:44;;;;;;;2.2;2;;;;;;;10.55;92.98633;937.41;;;;
2022/05/04 04:17:09;;;;;;;2.3;2.1;;;;;;;10.55;93.27441;937.4545;;;;
2022/05/04 04:19:37;;;;;;;2.3;2.1;;;;;;;10.62;93.19824;937.4658;;;;
2022/05/04 04:22:02;;;;;;;2.4;2;;;;;;;10.71;92.6123;937.4147;;;;
2022/05/04 04:24:30;;;;;;;3;2.6;;;;;;;10.77;92.51172;937.4486;;;;
2022/05/04 04:26:55;;;;;;;3.2;2.8;;;;;;;10.87;92.17676;937.4727;;;;
2022/05/04 04:29:25;;;;;;;3.6;2.8;;;;;;;10.9;91.55371;937.4673;;;;
2022/05/04 04:31:55;;;;;;;4.1;2.9;;;;;;;10.92;91.70605;937.4953;;;;
2022/05/04 04:34:20;;;;;;;3.3;3;;;;;;;10.87;91.61719;937.4711;;;;
2022/05/04 04:36:48;;;;;;;4.3;3.2;;;;;;;10.85;92.35547;937.5203;;;;
2022/05/04 04:39:13;;;;;;;3.8;3.4;;;;;;;10.93;92.37305;937.5089;;;;
2022/05/04 04:41:44;;;;;;;3.5;3.1;;;;;;;10.89;92.18066;937.5278;;;;
2022/05/04 04:44:11;;;;;;;4.2;3;;;;;;;10.91;92.02637;937.5414;;;;
2022/05/04 04:46:37;;;;;;;3.6;2.9;;;;;;;10.93;92.28125;937.5416;;;;
2022/05/04 04:49:05;;;;;;;3.7;2.1;;;;;;;10.77;91.59766;937.5761;;;;
2022/05/04 04:51:30;;;;;;;2.2;2;;;;;;;10.74;91.6582;937.5877;;;;
2022/05/04 04:53:58;;;;;;;2.4;1.6;;;;;;;10.67;92.13477;937.6294;;;;
2022/05/04 04:56:23;;;;;;;2.2;2;;;;;;;10.6;92.63281;937.6532;;;;
2022/05/04 04:58:51;;;;;;;2.3;2;;;;;;;10.58;93.07617;937.6483;;;;
2022/05/04 05:01:16;;;;;;;2.6;1.9;;;;;;;10.63;92.83496;937.6625;;;;
2022/05/04 05:03:47;;;;;;;2.6;2;;;;;;;10.51;93.32129;937.6685;;;;
2022/05/04 05:06:18;;;;;;;2.2;1.9;;;;;;;10.73;93.54102;937.6674;;;;
2022/05/04 05:08:42;;;;;;;2.6;2.1;;;;;;;10.8;92.32324;937.7045;;;;
2022/05/04 05:11:05;;;;;;;3.4;2.6;;;;;;;10.83;92.70605;937.7106;;;;
2022/05/04 05:16:06;;;;;;;4.8;2.9;;;;;;;10.93;92.48535;937.7216;;;;
2022/05/04 05:16:11;;;;;;;5.2;4.3;;;;;;;10.77;92.55566;937.7011;;;;
2022/05/04 05:18:29;;;;;;;7.1;4.8;;;;;;;10.71;92.71484;937.7078;;;;
2022/05/04 05:20:58;;;;;;;6.4;4.9;;;;;;;11.02;92.80371;937.6739;;;;
2022/05/04 05:23:24;;;;;;;4;2.8;;;;;;;10.99;90.92383;937.7053;;;;
2022/05/04 05:25:50;;;;;;;4.2;2.9;;;;;;;10.84;92.50195;937.6652;;;;
2022/05/04 05:28:15;;;;;;;4.1;2.8;;;;;;;11.14;91.74512;937.7233;;;;
2022/05/04 05:30:44;;;;;;;3.4;2.7;;;;;;;11.47;90.86426;937.6875;;;;
2022/05/04 05:36:37;;;;;;;2.1;1.6;;;;;;;12.93;83.10938;937.6545;;;;
2022/05/04 05:39:08;;;;;;;2.1;1.9;;;;;;;13.17;81.00781;937.685;;;;
2022/05/04 05:41:34;;;;;;;2.6;1.8;;;;;;;13.23;79.74414;937.6847;;;;
2022/05/04 05:44:02;;;;;;;2.5;1.8;;;;;;;12.64;81.10352;937.7062;;;;
2022/05/04 05:46:28;;;;;;;2.6;1.8;;;;;;;12.43;83.59863;937.7928;;;;
2022/05/04 05:48:52;;;;;;;1.8;1.7;;;;;;;12.76;82.57129;937.7294;;;;
2022/05/04 05:54:34;;;;;;;2.7;2;;;;;;;12.97;83.59863;937.8695;;;;
2022/05/04 05:57:02;;;;;;;3;2.4;;;;;;;12.85;83.96777;937.8041;;;;
2022/05/04 05:59:27;;;;;;;3.1;2.1;;;;;;;12.63;82.4668;937.8524;;;;
2022/05/04 06:01:55;;;;;;;5;2;;;;;;;12.97;83.29004;937.8624;;;;
2022/05/04 06:04:25;;;;;;;5.4;2.2;;;;;;;13.24;81.27246;937.8878;;;;
2022/05/04 06:06:56;;;;;;;6.1;2.8;;;;;;;13.51;82.23242;937.8723;;;;
2022/05/04 06:09:26;;;;;;;6.6;4.6;;;;;;;13.65;82.80859;937.8746;;;;
2022/05/04 06:11:52;;;;;;;8.4;4;;;;;;;13.45;82.09375;937.8588;;;;
2022/05/04 06:14:20;;;;;;;4.2;2.4;;;;;;;13.42;81.21387;937.8885;;;;
2022/05/04 06:16:53;;;;;;;2.5;2.2;;;;;;;13.29;82.39648;937.8412;;;;
2022/05/04 06:19:19;;;;;;;4.4;2.8;;;;;;;13.32;80.81738;937.8708;;;;
2022/05/04 06:21:44;;;;;;;3.6;1.9;;;;;;;13.4;79.57813;937.8666;;;;
2022/05/04 06:24:14;;;;;;;2.5;1.8;;;;;;;13.76;79.29004;937.7614;;;;
2022/05/04 06:26:39;;;;;;;2.7;1.7;;;;;;;14.18;77.93555;937.8289;;;;
2022/05/04 06:29:08;;;;;;;7.8;2;;;;;;;14.12;74.10449;937.8549;;;;
2022/05/04 06:34:11;;;;;;;3.8;1.8;;;;;;;13.97;74.57422;937.9153;;;;
2022/05/04 06:36:29;;;;;;;4.2;2;;;;;;;14.55;74.82324;937.8998;;;;
2022/05/04 06:38:54;;;;;;;4.3;1.5;;;;;;;14.6;72.64063;937.8666;;;;
2022/05/04 06:41:22;;;;;;;5.5;2;;;;;;;14.9;72.43848;937.8962;;;;
2022/05/04 06:43:47;;;;;;;5.7;1.7;;;;;;;15.13;71.12598;937.897;;;;
2022/05/04 06:46:16;;;;;;;7.5;2.4;;;;;;;15.78;70.63086;937.9103;;;;
2022/05/04 06:48:46;;;;;;;1.9;1.4;;;;;;;15.96;70.13965;937.9125;;;;
2022/05/04 06:51:10;;;;;;;4.1;1.6;;;;;;;15.96;68.08203;937.9174;;;;
2022/05/04 06:53:39;;;;;;;1.5;1.4;;;;;;;15.47;70.61621;937.9097;;;;
2022/05/04 06:56:04;;;;;;;2.6;1.2;;;;;;;16.28;66.77734;937.7894;;;;
2022/05/04 06:58:32;;;;;;;1.6;1.3;;;;;;;16.38;65.03516;937.8226;;;;
2022/05/04 07:00:57;;;;;;;3.1;1.6;;;;;;;16.43;66.60352;937.782;;;;
2022/05/04 07:03:26;;;;;;;2;1.2;;;;;;;15.95;65.36328;937.8226;;;;
2022/05/04 07:05:54;;;;;;;3.1;1.8;;;;;;;16.02;68.86523;937.823;;;;
2022/05/04 07:08:26;;;;;;;4.4;1.7;;;;;;;16.73;66.28027;937.8434;;;;
2022/05/04 07:10:56;;;;;;;4.1;1.5;;;;;;;17.26;64.19043;937.8189;;;;
2022/05/04 07:13:28;;;;;;;4.9;1.6;;;;;;;17.88;62.56348;937.7251;;;;
2022/05/04 07:15:58;;;;;;;2.6;1.4;;;;;;;18.16;61.93945;937.8295;;;;
2022/05/04 07:18:23;;;;;;;3.1;1.6;;;;;;;18.88;60.0625;937.762;;;;
2022/05/04 07:20:53;;;;;;;2.6;1.3;;;;;;;18.3;58.22949;937.7913;;;;
2022/05/04 07:23:19;;;;;;;1.9;1.5;;;;;;;19.44;57.51758;937.7734;;;;
2022/05/04 07:25:46;;;;;;;4;1.5;;;;;;;19.11;55.00684;937.714;;;;
2022/05/04 07:28:10;;;;;;;1.8;1.2;;;;;;;17.78;60.66895;937.783;;;;
2022/05/04 07:30:38;;;;;;;1.8;1.2;;;;;;;17.14;63.58203;937.7804;;;;
2022/05/04 07:33:04;;;;;;;8.6;2.6;;;;;;;18.02;61.45605;937.7159;;;;
2022/05/04 07:35:32;;;;;;;1.1;0.9;;;;;;;19.32;57.96777;937.7294;;;;
2022/05/04 07:38:03;;;;;;;1.4;1.2;;;;;;;20.92;54.33105;937.6636;;;;
2022/05/04 07:42:58;;;;;;;2.9;1;;;;;;;22.05;49.38281;937.6328;;;;
2022/05/04 07:45:24;;;;;;;1.4;1;;;;;;;20.07;51.6709;937.6487;;;;
2022/05/04 07:47:58;;;;;;;1.6;1.3;;;;;;;19.03;54.98438;937.6384;;;;
2022/05/04 07:50:25;;;;;;;4;1.4;;;;;;;19.09;55.00391;937.6376;;;;
2022/05/04 07:52:56;;;;;;;3;1.1;;;;;;;19.96;56.94434;937.5714;;;;
2022/05/04 07:55:22;;;;;;;2.6;1.2;;;;;;;20.61;54.35254;937.5859;;;;
2022/05/04 07:57:54;;;;;;;1.6;1.5;;;;;;;20.01;53.13477;937.6273;;;;
2022/05/04 08:05:34;;;;;;;1.7;1.3;;;;;;;19.22;54.47266;937.6459;;;;
2022/05/04 08:08:05;;;;;;;2.4;1.4;;;;;;;18.75;55.40234;937.6308;;;;
2022/05/04 08:10:36;;;;;;;1.5;1.3;;;;;;;18.46;58.01758;937.6478;;;;
2022/05/04 08:13:02;;;;;;;2;1.1;;;;;;;18.99;55.07227;937.6002;;;;
2022/05/04 08:15:37;;;;;;;1;1;;;;;;;19.15;54.97754;937.6483;;;;
2022/05/04 08:18:05;;;;;;;1.6;1.5;;;;;;;18.51;55.43066;937.6589;;;;
2022/05/04 08:20:35;;;;;;;1.4;1.3;;;;;;;18.88;55.8623;937.6328;;;;
2022/05/04 08:23:06;;;;;;;1.9;1.5;;;;;;;19.08;55.34082;937.6564;;;;
2022/05/04 08:25:31;;;;;;;3;1.7;;;;;;;19.26;56.48047;937.6242;;;;
2022/05/04 08:27:59;;;;;;;1.6;1.4;;;;;;;19;53.96875;937.6202;;;;
2022/05/04 08:30:24;;;;;;;2;1.4;;;;;;;19.17;53.96484;937.6375;;;;
2022/05/04 08:32:54;;;;;;;2;1.3;;;;;;;19.48;55.62207;937.6044;;;;
2022/05/04 08:35:24;;;;;;;1.2;1.1;;;;;;;19.73;53.31152;937.5424;;;;
2022/05/04 08:37:55;;;;;;;2;1.2;;;;;;;19.26;56.58496;937.5701;;;;
2022/05/04 08:40:25;;;;;;;1.7;1;;;;;;;21.07;51.35645;937.5359;;;;
2022/05/04 08:42:57;;;;;;;1.9;1;;;;;;;23.16;46.8623;937.4958;;;;
2022/05/04 08:45:26;;;;;;;1.4;1.3;;;;;;;23.3;44.70215;937.5002;;;;
2022/05/04 08:47:56;;;;;;;0.8;0.8;;;;;;;25.69;39.04492;937.4633;;;;
2022/05/04 08:50:30;;;;;;;1.3;0.9;;;;;;;25.48;38.15332;937.42;;;;
2022/05/04 08:52:55;;;;;;;1.4;1.1;;;;;;;26;37.62891;937.4233;;;;
2022/05/04 08:55:23;;;;;;;1.8;1.1;;;;;;;27.83;34.75488;937.4066;;;;
2022/05/04 08:57:48;;;;;;;1.2;1;;;;;;;26.6;36.85156;937.4114;;;;
2022/05/04 09:00:18;;;;;;;2.5;1.2;;;;;;;26.4;34.77539;937.3592;;;;
2022/05/04 09:02:50;;;;;;;1.3;1;;;;;;;26.95;35.06641;937.3756;;;;
2022/05/04 09:05:19;;;;;;;1.9;0.9;;;;;;;26.95;34.04785;937.3962;;;;
2022/05/04 09:07:44;;;;;;;1.8;0.9;;;;;;;26.91;33.81934;937.3901;;;;
2022/05/04 09:10:18;;;;;;;2.2;0.9;;;;;;;25.19;36.79395;937.2787;;;;
2022/05/04 09:12:43;;;;;;;1;1;;;;;;;23.86;40.27441;937.2964;;;;
2022/05/04 09:15:08;;;;;;;1;1;;;;;;;23.41;40.64551;937.3386;;;;
2022/05/04 09:17:38;;;;;;;1.2;1;;;;;;;22.26;45.44336;937.3367;;;;
2022/05/04 09:22:34;;;;;;;1.8;1.3;;;;;;;21.63;48.1875;937.2205;;;;
2022/05/04 09:24:59;;;;;;;1.2;1.1;;;;;;;23.38;44.78027;937.2271;;;;
2022/05/04 09:27:25;;;;;;;2.4;1.2;;;;;;;23.6;43.35645;937.1044;;;;
2022/05/04 09:29:50;;;;;;;2;1;;;;;;;24.38;42.83105;937.0723;;;;
2022/05/04 09:32:16;;;;;;;1.3;1.2;;;;;;;25.73;38.06738;937.144;;;;
2022/05/04 09:34:42;;;;;;;1.7;1;;;;;;;24.56;41.0918;937.0928;;;;
2022/05/04 09:46:52;;;;;;;1.5;1.4;;;;;;;22.99;43.30957;937.0513;;;;
2022/05/04 09:49:19;;;;;;;1.7;1.3;;;;;;;21.76;45.97656;937.0829;;;;
2022/05/04 09:51:48;;;;;;;1.8;1.3;;;;;;;22.19;45.62305;937.1192;;;;
2022/05/04 09:54:14;;;;;;;1.5;1.4;;;;;;;21.43;46.11914;937.0778;;;;
2022/05/04 09:56:42;;;;;;;1.5;1.4;;;;;;;20.94;49.77441;937.046;;;;
2022/05/04 09:59:07;;;;;;;3.5;1.5;;;;;;;21.42;48.2002;937.0334;;;;
2022/05/04 10:01:38;;;;;;;1.9;1.6;;;;;;;20.71;48.79004;937.0053;;;;
2022/05/04 10:04:08;;;;;;;1.7;1.6;;;;;;;20.98;47.7207;937.01;;;;
2022/05/04 10:06:33;;;;;;;1.9;1.6;;;;;;;21.15;48.1123;937.0339;;;;
2022/05/04 10:09:03;;;;;;;2;1.8;;;;;;;21.53;46.87891;937.0316;;;;
2022/05/04 10:11:27;;;;;;;2;1.7;;;;;;;21.45;47.05762;936.9572;;;;
2022/05/04 10:13:55;;;;;;;1.5;1.4;;;;;;;20.39;50.23828;937.0168;;;;
2022/05/04 10:16:20;;;;;;;2.3;1.7;;;;;;;20.21;50.73145;937.0364;;;;
2022/05/04 10:18:48;;;;;;;2.1;1.6;;;;;;;20;51.45313;936.9341;;;;
2022/05/04 10:21:16;;;;;;;1.9;1.7;;;;;;;19.46;53.69727;937.0128;;;;
2022/05/04 10:23:41;;;;;;;1.7;1.5;;;;;;;19.5;53.35352;936.9908;;;;
2022/05/04 10:26:06;;;;;;;1.6;1.5;;;;;;;20.06;50.90039;936.9303;;;;
2022/05/04 10:28:34;;;;;;;1.9;1.7;;;;;;;20.38;49.75879;936.9434;;;;
2022/05/04 10:30:59;;;;;;;3.3;1.8;;;;;;;20.43;51.50391;936.8973;;;;
2022/05/04 10:33:25;;;;;;;3.2;1.9;;;;;;;20.06;53.03613;936.8323;;;;
2022/05/04 10:35:55;;;;;;;2.1;1.9;;;;;;;19.98;52.97949;936.8312;;;;
2022/05/04 10:38:24;;;;;;;2.9;1.8;;;;;;;20.45;52.33496;936.7333;;;;
2022/05/04 10:40:50;;;;;;;2.3;1.9;;;;;;;21.17;47.15625;936.7935;;;;
2022/05/04 10:43:13;;;;;;;2;1.6;;;;;;;21.47;45.95898;936.8067;;;;
2022/05/04 10:45:41;;;;;;;2.1;1.8;;;;;;;21.16;48.18359;936.8108;;;;
2022/05/04 10:48:07;;;;;;;1.9;1.6;;;;;;;20.92;47.78418;936.829;;;;
2022/05/04 10:50:38;;;;;;;1.9;1.4;;;;;;;20.74;46.65527;936.8401;;;;
2022/05/04 10:53:07;;;;;;;2;1.3;;;;;;;20.42;47.37891;936.7883;;;;
2022/05/04 10:55:32;;;;;;;1.8;1.6;;;;;;;20.31;49.48047;936.8212;;;;
2022/05/04 10:58:00;;;;;;;2.1;1.6;;;;;;;20.34;48.9707;936.8059;;;;
2022/05/04 11:00:25;;;;;;;2.1;1.6;;;;;;;20.19;49.74902;936.7903;;;;
2022/05/04 11:02:53;;;;;;;2.8;1.7;;;;;;;19.96;50.69043;936.7697;;;;
2022/05/04 11:05:22;;;;;;;1.7;1.5;;;;;;;20.2;51.29102;936.7489;;;;
2022/05/04 11:07:48;;;;;;;2.2;1.7;;;;;;;20.09;51.83691;936.6965;;;;
2022/05/04 11:10:16;;;;;;;2.9;1.9;;;;;;;20.4;50.51855;936.6648;;;;
2022/05/04 11:12:41;;;;;;;1.7;1.6;;;;;;;20.73;51.16406;936.6228;;;;
2022/05/04 11:15:10;;;;;;;5.9;3;;;;;;;20.84;50.49902;936.6205;;;;
2022/05/04 11:17:43;;;;;;;2.6;2;;;;;;;21.59;47.41113;936.6333;;;;
2022/05/04 11:20:15;;;;;;;2.1;1.7;;;;;;;22.17;47.06348;936.5458;;;;
2022/05/04 11:22:44;;;;;;;2.4;1.9;;;;;;;23.12;45.95313;936.5128;;;;
2022/05/04 11:25:10;;;;;;;1.5;1.4;;;;;;;23.43;44.57422;936.4847;;;;
2022/05/04 11:27:38;;;;;;;3;1.7;;;;;;;23.65;42.99707;936.4366;;;;
2022/05/04 11:30:13;;;;;;;2.1;1.8;;;;;;;23.88;41.91211;936.4847;;;;
2022/05/04 11:32:44;;;;;;;2.6;1.6;;;;;;;23.97;41.19238;936.4778;;;;
2022/05/04 11:35:16;;;;;;;3;2;;;;;;;23.43;45.12598;936.4914;;;;
2022/05/04 11:37:42;;;;;;;2.6;2.1;;;;;;;23.66;41.60938;936.4353;;;;
2022/05/04 11:40:07;;;;;;;3.1;1.8;;;;;;;23.57;40.83594;936.4117;;;;
2022/05/04 11:42:38;;;;;;;2.1;1.9;;;;;;;22.59;43.19922;936.4059;;;;
2022/05/04 11:45:09;;;;;;;2.9;1.7;;;;;;;23.01;43.47461;936.3694;;;;
2022/05/04 11:47:36;;;;;;;4.3;2.5;;;;;;;22.87;43.43848;936.3506;;;;
2022/05/04 11:50:06;;;;;;;1.4;1.3;;;;;;;23.25;39.24414;936.2787;;;;
2022/05/04 11:52:40;;;;;;;1.6;1.5;;;;;;;23.22;41.21582;936.3347;;;;
2022/05/04 11:55:13;;;;;;;1.7;1.5;;;;;;;22.29;42.30371;936.3123;;;;
2022/05/04 11:57:40;;;;;;;3.3;1.6;;;;;;;21.65;43.12012;936.3436;;;;
2022/05/04 12:00:06;;;;;;;3.1;1.3;;;;;;;21.55;42.95801;936.3169;;;;
2022/05/04 12:02:34;;;;;;;3.2;1.4;;;;;;;21.56;45.08984;936.2776;;;;
2022/05/04 12:05:06;;;;;;;2.9;1.5;;;;;;;21.43;43.13379;936.2346;;;;
2022/05/04 12:07:31;;;;;;;1.7;1.6;;;;;;;21.12;43.43066;936.2065;;;;
2022/05/04 12:09:56;;;;;;;2.2;1.6;;;;;;;21.02;48.13379;936.2606;;;;
2022/05/04 12:12:21;;;;;;;2.2;1.8;;;;;;;21.49;45.42285;936.2492;;;;
2022/05/04 12:14:52;;;;;;;2.1;1.8;;;;;;;21.8;42.74707;936.2231;;;;
2022/05/04 12:17:17;;;;;;;2.8;1.9;;;;;;;22.02;42.78125;936.1736;;;;
2022/05/04 12:19:44;;;;;;;2.8;1.8;;;;;;;21.8;44.49414;936.1572;;;;
2022/05/04 12:22:09;;;;;;;3.1;1.7;;;;;;;21.9;44.26855;936.1622;;;;
2022/05/04 12:24:39;;;;;;;4.2;1.5;;;;;;;22.15;45.41992;936.0847;;;;
2022/05/04 12:27:04;;;;;;;2.1;1.7;;;;;;;22.63;43.625;936.0451;;;;
2022/05/04 12:34:23;;;;;;;1.3;1.2;;;;;;;22.44;42.3291;936.0538;;;;
2022/05/04 12:36:52;;;;;;;1.9;1.5;;;;;;;22.16;44.21289;936.0505;;;;
2022/05/04 12:39:19;;;;;;;1.6;1.5;;;;;;;22.01;45.78027;936.0013;;;;
2022/05/04 12:41:44;;;;;;;1.6;1.5;;;;;;;21.81;45.85449;935.9299;;;;
2022/05/04 12:44:10;;;;;;;1.4;1.3;;;;;;;21.89;44.11621;935.9037;;;;
2022/05/04 12:46:35;;;;;;;1.5;1.4;;;;;;;21.94;43.3125;935.9109;;;;
2022/05/04 12:49:01;;;;;;;1.9;1.7;;;;;;;22.09;43.32617;935.887;;;;
2022/05/04 12:51:26;;;;;;;1.5;1.4;;;;;;;22.04;44.09668;935.8669;;;;
2022/05/04 12:53:55;;;;;;;4.2;1.6;;;;;;;21.19;43.60059;935.8519;;;;
2022/05/04 12:58:45;;;;;;;1.4;1.2;;;;;;;21.8;42.85352;935.7891;;;;
2022/05/04 13:01:10;;;;;;;1.3;1.2;;;;;;;22.16;44.20215;935.7219;;;;
2022/05/04 13:03:37;;;;;;;1.3;1.2;;;;;;;22.48;42.02734;935.7131;;;;
2022/05/04 13:06:02;;;;;;;1.7;1.5;;;;;;;22.74;41.6416;935.6675;;;;
2022/05/04 13:08:30;;;;;;;1.4;1.3;;;;;;;22.57;40.18262;935.6702;;;;
2022/05/04 13:10:55;;;;;;;1.3;1.2;;;;;;;21.93;40.21777;935.6703;;;;
2022/05/04 13:13:25;;;;;;;1.5;1.4;;;;;;;21.51;42.75586;935.6522;;;;
2022/05/04 13:15:51;;;;;;;1.5;1.4;;;;;;;21.58;44.86914;935.5728;;;;
2022/05/04 13:18:15;;;;;;;1.7;1.6;;;;;;;21.27;43.48047;935.5831;;;;
2022/05/04 13:20:43;;;;;;;2.2;1.4;;;;;;;21.39;45.72754;935.5844;;;;
2022/05/04 13:23:08;;;;;;;2;1.8;;;;;;;21.13;45.84082;935.6418;;;;
2022/05/04 13:25:36;;;;;;;2.3;2;;;;;;;21.4;46.32617;935.5483;;;;
2022/05/04 13:28:01;;;;;;;1.6;1.3;;;;;;;21.54;44.79492;935.5895;;;;
2022/05/04 13:30:27;;;;;;;1.5;1.4;;;;;;;21.38;46.27832;935.5051;;;;
2022/05/04 13:32:53;;;;;;;1.8;1.3;;;;;;;21.31;46.48047;935.4772;;;;
2022/05/04 13:35:20;;;;;;;1.7;1.6;;;;;;;21.21;48.2832;935.5563;;;;
2022/05/04 13:37:45;;;;;;;1.8;1.5;;;;;;;21.02;46.15723;935.613;;;;
2022/05/04 13:40:15;;;;;;;1.5;1.4;;;;;;;20.69;46.63672;935.5845;;;;
2022/05/04 13:42:47;;;;;;;1.9;1.4;;;;;;;20.67;46.44922;935.6545;;;;
2022/05/04 13:45:14;;;;;;;1.7;1.6;;;;;;;20.48;46.3584;935.6696;;;;
2022/05/04 13:47:46;;;;;;;1.7;1.5;;;;;;;20.66;46.12012;935.6047;;;;
2022/05/04 13:55:18;;;;;;;1.9;1.8;;;;;;;20.56;46.99805;935.6044;;;;
2022/05/04 13:57:46;;;;;;;2.1;1.7;;;;;;;20.43;48.2207;935.6786;;;;
2022/05/04 14:00:16;;;;;;;1.6;1.4;;;;;;;20.24;48.64453;935.6144;;;;
2022/05/04 14:02:47;;;;;;;2.5;1.8;;;;;;;20.04;47.88672;935.593;;;;
2022/05/04 14:05:20;;;;;;;2.5;1.8;;;;;;;19.92;48.79688;935.6076;;;;
2022/05/04 14:07:49;;;;;;;2.7;1.5;;;;;;;19.83;50.15137;935.6848;;;;
2022/05/04 14:10:21;;;;;;;1.8;1.5;;;;;;;19.59;50.01953;935.7324;;;;
2022/05/04 14:12:50;;;;;;;2.4;1.8;;;;;;;19.43;48.15918;935.7467;;;;
2022/05/04 14:15:17;;;;;;;4.3;2.3;;;;;;;19.38;50.87988;935.8189;;;;
2022/05/04 14:17:46;;;;;;;2.6;1.5;;;;;;;18.86;51.2041;935.8791;;;;
2022/05/04 14:20:11;;;;;;;2.5;1.7;;;;;;;18.48;53.86914;935.9299;;;;
2022/05/04 14:22:44;;;;;;;3.1;2.1;;;;;;;18.04;56.96387;935.9309;;;;
2022/05/04 14:25:16;;;;;;;3;1.6;;;;;;;17.41;60.87305;935.9899;;;;
2022/05/04 14:27:47;;;;;;;3.5;2;;;;;;;17.11;61.27051;936.0157;;;;
2022/05/04 14:30:18;;;;;;;3.2;1.9;;;;;;;16.79;62.62793;936.1642;;;;
2022/05/04 14:32:49;;;;;;;2.7;2.2;;;;;;;16.55;66.86523;936.2626;;;;
2022/05/04 14:35:19;;;;;;;3;1.7;;;;;;;16.22;63.91211;936.3222;;;;
2022/05/04 14:37:50;;;;;;;2.1;1.9;;;;;;;16.08;63.10547;936.4036;;;;
2022/05/04 14:40:17;;;;;;;2.3;2;;;;;;;15.8;63.78027;936.4905;;;;
2022/05/04 14:42:48;;;;;;;1.8;1.7;;;;;;;15.53;66.87207;936.7053;;;;
2022/05/04 14:45:20;;;;;;;2.7;2.2;;;;;;;15.32;69.89844;936.8639;;;;
2022/05/04 14:47:54;;;;;;;2.3;2.1;;;;;;;15.03;70.75195;937.0126;;;;
2022/05/04 14:50:20;;;;;;;2.6;1.8;;;;;;;14.87;71.04688;937.0347;;;;
2022/05/04 14:52:45;;;;;;;3.2;1.8;;;;;;;14.86;71.09277;937.0508;;;;
2022/05/04 14:55:18;;;;;;;2.5;1.9;;;;;;;14.78;70.68945;937.0272;;;;
2022/05/04 14:57:48;;;;;;;3;1.8;;;;;;;14.56;71.29785;937.1945;;;;
2022/05/04 15:00:15;;;;;;;3;2.2;;;;;;;14.59;71.33691;937.2159;;;;
2022/05/04 15:05:24;;;;;;;2.7;2.3;;;;;;;14.64;72.03613;937.2864;;;;
2022/05/04 15:07:57;;;;;;;2.9;1.9;;;;;;;14.47;73.28809;937.3403;;;;
2022/05/04 15:10:28;;;;;;;5.5;3.4;;;;;;;14.6;75.70801;937.3417;;;;
2022/05/04 15:13:00;;;;;;;6.3;2.8;;;;;;;14.73;76.95215;937.3442;;;;
2022/05/04 15:15:38;;;;;;;4.1;2.7;;;;;;;14.82;78.92871;937.4423;;;;
2022/05/04 15:18:13;;;;;;;3.6;2.5;;;;;;;14.84;79.53125;937.4814;;;;
2022/05/04 15:20:44;;;;;;;3.1;2.5;;;;;;;15.04;78.86328;937.4905;;;;
2022/05/04 15:23:15;;;;;;;3.5;2.6;;;;;;;14.99;77.24023;937.4504;;;;
2022/05/04 15:25:45;;;;;;;2.8;2.5;;;;;;;15.27;78.24805;937.4211;;;;
2022/05/04 15:28:10;;;;;;;3.6;3;;;;;;;15.31;79.69629;937.4216;;;;
2022/05/04 15:30:36;;;;;;;3.3;2.9;;;;;;;15.51;79.47949;937.48;;;;
2022/05/04 15:33:03;;;;;;;3;2.7;;;;;;;15.67;77.45313;937.5117;;;;
2022/05/04 15:35:29;;;;;;;3.9;2.9;;;;;;;15.37;77.2041;937.4908;;;;
2022/05/04 15:37:55;;;;;;;4.8;2.9;;;;;;;15.56;77.75586;937.4425;;;;
2022/05/04 15:40:21;;;;;;;3.6;2.8;;;;;;;15.58;76.39551;937.4022;;;;
2022/05/04 15:42:46;;;;;;;3.9;2.9;;;;;;;15.63;75.60938;937.3684;;;;
2022/05/04 15:45:20;;;;;;;4.9;3;;;;;;;15.73;76.42383;937.3119;;;;